sensor_id;sensor_type;location;lat;lon;timestamp;P1;durP1;ratioP1;P2;durP2;ratioP2
836;SDS011;400;53.550;9.932;2023-03-08T00:01:02;2.63;;;1.40;;
836;SDS011;400;53.550;9.932;2023-03-08T00:03:30;1.75;;;1.40;;
836;SDS011;400;53.550;9.932;2023-03-08T00:05:57;3.72;;;1.70;;
836;SDS011;400;53.550;9.932;2023-03-08T00:08:23;3.97;;;1.70;;
836;SDS011;400;53.550;9.932;2023-03-08T00:10:50;4.50;;;1.40;;
836;SDS011;400;53.550;9.932;2023-03-08T00:13:17;2.33;;;1.42;;
836;SDS011;400;53.550;9.932;2023-03-08T00:15:44;2.65;;;1.42;;
836;SDS011;400;53.550;9.932;2023-03-08T00:18:11;2.70;;;1.30;;
836;SDS011;400;53.550;9.932;2023-03-08T00:20:39;2.72;;;1.55;;
836;SDS011;400;53.550;9.932;2023-03-08T00:23:07;5.85;;;1.73;;
836;SDS011;400;53.550;9.932;2023-03-08T00:25:37;1.45;;;1.33;;
836;SDS011;400;53.550;9.932;2023-03-08T00:28:06;3.22;;;1.33;;
836;SDS011;400;53.550;9.932;2023-03-08T00:30:35;2.00;;;1.75;;
836;SDS011;400;53.550;9.932;2023-03-08T00:33:01;1.90;;;1.80;;
836;SDS011;400;53.550;9.932;2023-03-08T00:35:28;3.40;;;1.38;;
836;SDS011;400;53.550;9.932;2023-03-08T00:37:56;3.67;;;2.03;;
836;SDS011;400;53.550;9.932;2023-03-08T00:40:23;2.85;;;1.70;;
836;SDS011;400;53.550;9.932;2023-03-08T00:42:50;2.00;;;1.80;;
836;SDS011;400;53.550;9.932;2023-03-08T00:45:17;1.73;;;1.60;;
836;SDS011;400;53.550;9.932;2023-03-08T00:47:43;1.98;;;1.60;;
836;SDS011;400;53.550;9.932;2023-03-08T00:50:10;2.65;;;1.77;;
836;SDS011;400;53.550;9.932;2023-03-08T00:52:37;2.25;;;1.75;;
836;SDS011;400;53.550;9.932;2023-03-08T00:55:05;1.90;;;1.50;;
836;SDS011;400;53.550;9.932;2023-03-08T00:57:33;2.25;;;1.73;;
836;SDS011;400;53.550;9.932;2023-03-08T00:59:59;2.17;;;1.33;;
836;SDS011;400;53.550;9.932;2023-03-08T01:02:26;3.13;;;1.60;;
836;SDS011;400;53.550;9.932;2023-03-08T01:04:53;2.30;;;1.58;;
836;SDS011;400;53.550;9.932;2023-03-08T01:07:21;1.67;;;1.30;;
836;SDS011;400;53.550;9.932;2023-03-08T01:09:52;1.50;;;1.40;;
836;SDS011;400;53.550;9.932;2023-03-08T01:12:21;1.80;;;1.70;;
836;SDS011;400;53.550;9.932;2023-03-08T01:14:49;4.57;;;1.58;;
836;SDS011;400;53.550;9.932;2023-03-08T01:17:16;2.67;;;1.60;;
836;SDS011;400;53.550;9.932;2023-03-08T01:19:43;1.70;;;1.45;;
836;SDS011;400;53.550;9.932;2023-03-08T01:22:09;3.08;;;1.83;;
836;SDS011;400;53.550;9.932;2023-03-08T01:24:36;1.70;;;1.60;;
836;SDS011;400;53.550;9.932;2023-03-08T01:27:03;2.88;;;2.28;;
836;SDS011;400;53.550;9.932;2023-03-08T01:29:31;4.28;;;2.25;;
836;SDS011;400;53.550;9.932;2023-03-08T01:31:58;2.55;;;2.10;;
836;SDS011;400;53.550;9.932;2023-03-08T01:34:25;2.40;;;2.20;;
836;SDS011;400;53.550;9.932;2023-03-08T01:36:52;2.42;;;2.10;;
836;SDS011;400;53.550;9.932;2023-03-08T01:39:18;2.55;;;2.30;;
836;SDS011;400;53.550;9.932;2023-03-08T01:41:45;2.80;;;2.55;;
836;SDS011;400;53.550;9.932;2023-03-08T01:44:14;5.30;;;4.20;;
836;SDS011;400;53.550;9.932;2023-03-08T01:46:44;3.00;;;2.35;;
836;SDS011;400;53.550;9.932;2023-03-08T01:49:12;3.00;;;2.67;;
836;SDS011;400;53.550;9.932;2023-03-08T01:51:41;2.20;;;1.80;;
836;SDS011;400;53.550;9.932;2023-03-08T01:54:11;4.07;;;2.55;;
836;SDS011;400;53.550;9.932;2023-03-08T01:56:41;3.78;;;2.60;;
836;SDS011;400;53.550;9.932;2023-03-08T01:59:09;2.65;;;2.45;;
836;SDS011;400;53.550;9.932;2023-03-08T02:01:37;3.90;;;2.60;;
836;SDS011;400;53.550;9.932;2023-03-08T02:04:06;3.13;;;2.25;;
836;SDS011;400;53.550;9.932;2023-03-08T02:06:34;2.78;;;2.58;;
836;SDS011;400;53.550;9.932;2023-03-08T02:09:01;2.60;;;2.40;;
836;SDS011;400;53.550;9.932;2023-03-08T02:11:29;5.10;;;2.97;;
836;SDS011;400;53.550;9.932;2023-03-08T02:13:57;3.33;;;2.03;;
836;SDS011;400;53.550;9.932;2023-03-08T02:16:25;6.05;;;3.08;;
836;SDS011;400;53.550;9.932;2023-03-08T02:18:53;5.90;;;2.75;;
836;SDS011;400;53.550;9.932;2023-03-08T02:21:23;3.67;;;3.20;;
836;SDS011;400;53.550;9.932;2023-03-08T02:23:52;3.03;;;2.83;;
836;SDS011;400;53.550;9.932;2023-03-08T02:26:19;6.22;;;3.88;;
836;SDS011;400;53.550;9.932;2023-03-08T02:28:47;3.00;;;2.75;;
836;SDS011;400;53.550;9.932;2023-03-08T02:31:14;2.75;;;2.53;;
836;SDS011;400;53.550;9.932;2023-03-08T02:33:41;2.85;;;2.58;;
836;SDS011;400;53.550;9.932;2023-03-08T02:36:08;6.25;;;2.75;;
836;SDS011;400;53.550;9.932;2023-03-08T02:38:35;3.53;;;2.85;;
836;SDS011;400;53.550;9.932;2023-03-08T02:41:03;2.95;;;2.65;;
836;SDS011;400;53.550;9.932;2023-03-08T02:43:31;3.95;;;3.45;;
836;SDS011;400;53.550;9.932;2023-03-08T02:45:57;3.92;;;3.63;;
836;SDS011;400;53.550;9.932;2023-03-08T02:48:24;4.20;;;3.80;;
836;SDS011;400;53.550;9.932;2023-03-08T02:50:51;6.90;;;3.28;;
836;SDS011;400;53.550;9.932;2023-03-08T02:53:17;4.10;;;3.75;;
836;SDS011;400;53.550;9.932;2023-03-08T02:55:44;3.95;;;3.30;;
836;SDS011;400;53.550;9.932;2023-03-08T02:58:12;4.15;;;3.85;;
836;SDS011;400;53.550;9.932;2023-03-08T03:00:39;4.35;;;3.40;;
836;SDS011;400;53.550;9.932;2023-03-08T03:03:06;4.57;;;3.40;;
836;SDS011;400;53.550;9.932;2023-03-08T03:05:33;3.92;;;3.53;;
836;SDS011;400;53.550;9.932;2023-03-08T03:07:59;5.28;;;3.88;;
836;SDS011;400;53.550;9.932;2023-03-08T03:10:28;3.85;;;3.55;;
836;SDS011;400;53.550;9.932;2023-03-08T03:12:55;6.25;;;3.70;;
836;SDS011;400;53.550;9.932;2023-03-08T03:15:23;4.10;;;3.60;;
836;SDS011;400;53.550;9.932;2023-03-08T03:17:50;4.93;;;3.88;;
836;SDS011;400;53.550;9.932;2023-03-08T03:20:17;6.75;;;3.85;;
836;SDS011;400;53.550;9.932;2023-03-08T03:22:43;4.95;;;3.20;;
836;SDS011;400;53.550;9.932;2023-03-08T03:25:11;3.75;;;3.45;;
836;SDS011;400;53.550;9.932;2023-03-08T03:27:37;4.53;;;4.13;;
836;SDS011;400;53.550;9.932;2023-03-08T03:30:05;4.80;;;4.40;;
836;SDS011;400;53.550;9.932;2023-03-08T03:32:35;4.90;;;4.50;;
836;SDS011;400;53.550;9.932;2023-03-08T03:35:01;5.07;;;3.80;;
836;SDS011;400;53.550;9.932;2023-03-08T03:37:28;4.10;;;3.70;;
836;SDS011;400;53.550;9.932;2023-03-08T03:39:55;4.40;;;3.67;;
836;SDS011;400;53.550;9.932;2023-03-08T03:42:22;4.05;;;3.75;;
836;SDS011;400;53.550;9.932;2023-03-08T03:44:49;4.22;;;3.60;;
836;SDS011;400;53.550;9.932;2023-03-08T03:47:15;3.80;;;3.42;;
836;SDS011;400;53.550;9.932;2023-03-08T03:49:44;4.57;;;3.90;;
836;SDS011;400;53.550;9.932;2023-03-08T03:52:10;3.70;;;3.28;;
836;SDS011;400;53.550;9.932;2023-03-08T03:54:37;3.55;;;3.35;;
836;SDS011;400;53.550;9.932;2023-03-08T03:57:04;3.28;;;2.95;;
836;SDS011;400;53.550;9.932;2023-03-08T03:59:31;4.25;;;3.25;;
836;SDS011;400;53.550;9.932;2023-03-08T04:01:59;4.13;;;3.20;;
836;SDS011;400;53.550;9.932;2023-03-08T04:04:25;3.80;;;3.22;;
836;SDS011;400;53.550;9.932;2023-03-08T04:06:54;4.00;;;3.70;;
836;SDS011;400;53.550;9.932;2023-03-08T04:09:20;3.78;;;3.58;;
836;SDS011;400;53.550;9.932;2023-03-08T04:11:47;3.83;;;3.40;;
836;SDS011;400;53.550;9.932;2023-03-08T04:14:17;6.30;;;3.45;;
836;SDS011;400;53.550;9.932;2023-03-08T04:16:45;3.40;;;3.20;;
836;SDS011;400;53.550;9.932;2023-03-08T04:19:12;5.43;;;2.90;;
836;SDS011;400;53.550;9.932;2023-03-08T04:21:39;4.03;;;3.63;;
836;SDS011;400;53.550;9.932;2023-03-08T04:24:07;4.40;;;4.00;;
836;SDS011;400;53.550;9.932;2023-03-08T04:26:34;4.88;;;3.70;;
836;SDS011;400;53.550;9.932;2023-03-08T04:29:02;4.00;;;3.70;;
836;SDS011;400;53.550;9.932;2023-03-08T04:31:30;4.15;;;3.78;;
836;SDS011;400;53.550;9.932;2023-03-08T04:33:59;4.85;;;3.50;;
836;SDS011;400;53.550;9.932;2023-03-08T04:36:26;4.65;;;3.80;;
836;SDS011;400;53.550;9.932;2023-03-08T04:38:53;3.58;;;3.35;;
836;SDS011;400;53.550;9.932;2023-03-08T04:41:21;3.67;;;3.05;;
836;SDS011;400;53.550;9.932;2023-03-08T04:43:49;4.55;;;3.72;;
836;SDS011;400;53.550;9.932;2023-03-08T04:46:18;5.18;;;4.15;;
836;SDS011;400;53.550;9.932;2023-03-08T04:48:47;3.00;;;2.80;;
836;SDS011;400;53.550;9.932;2023-03-08T04:51:17;3.85;;;3.45;;
836;SDS011;400;53.550;9.932;2023-03-08T04:53:44;2.58;;;2.40;;
836;SDS011;400;53.550;9.932;2023-03-08T04:56:12;3.70;;;3.40;;
836;SDS011;400;53.550;9.932;2023-03-08T04:58:42;2.45;;;2.22;;
836;SDS011;400;53.550;9.932;2023-03-08T05:01:10;3.80;;;3.50;;
836;SDS011;400;53.550;9.932;2023-03-08T05:03:38;3.53;;;3.22;;
836;SDS011;400;53.550;9.932;2023-03-08T05:06:05;4.82;;;4.20;;
836;SDS011;400;53.550;9.932;2023-03-08T05:08:33;4.50;;;4.10;;
836;SDS011;400;53.550;9.932;2023-03-08T05:11:00;4.25;;;2.95;;
836;SDS011;400;53.550;9.932;2023-03-08T05:13:29;4.43;;;4.03;;
836;SDS011;400;53.550;9.932;2023-03-08T05:16:00;3.80;;;3.50;;
836;SDS011;400;53.550;9.932;2023-03-08T05:18:27;3.60;;;3.30;;
836;SDS011;400;53.550;9.932;2023-03-08T05:20:54;6.20;;;3.50;;
836;SDS011;400;53.550;9.932;2023-03-08T05:23:23;3.88;;;3.47;;
836;SDS011;400;53.550;9.932;2023-03-08T05:25:51;4.20;;;3.90;;
836;SDS011;400;53.550;9.932;2023-03-08T05:28:18;4.00;;;3.60;;
836;SDS011;400;53.550;9.932;2023-03-08T05:30:45;4.47;;;4.07;;
836;SDS011;400;53.550;9.932;2023-03-08T05:33:14;7.38;;;6.40;;
836;SDS011;400;53.550;9.932;2023-03-08T05:35:41;6.15;;;5.50;;
836;SDS011;400;53.550;9.932;2023-03-08T05:38:08;6.72;;;6.13;;
836;SDS011;400;53.550;9.932;2023-03-08T05:40:36;7.03;;;6.35;;
836;SDS011;400;53.550;9.932;2023-03-08T05:43:03;11.65;;;7.72;;
836;SDS011;400;53.550;9.932;2023-03-08T05:45:29;7.55;;;6.80;;
836;SDS011;400;53.550;9.932;2023-03-08T05:47:56;6.82;;;6.05;;
836;SDS011;400;53.550;9.932;2023-03-08T05:50:24;8.85;;;6.70;;
836;SDS011;400;53.550;9.932;2023-03-08T05:52:51;8.50;;;7.07;;
836;SDS011;400;53.550;9.932;2023-03-08T05:55:18;8.75;;;7.13;;
836;SDS011;400;53.550;9.932;2023-03-08T05:57:45;9.25;;;7.50;;
836;SDS011;400;53.550;9.932;2023-03-08T06:00:15;7.53;;;6.50;;
836;SDS011;400;53.550;9.932;2023-03-08T06:02:42;7.57;;;6.78;;
836;SDS011;400;53.550;9.932;2023-03-08T06:05:09;7.40;;;6.65;;
836;SDS011;400;53.550;9.932;2023-03-08T06:07:38;11.57;;;6.90;;
836;SDS011;400;53.550;9.932;2023-03-08T06:10:07;10.23;;;7.75;;
836;SDS011;400;53.550;9.932;2023-03-08T06:12:34;10.43;;;7.35;;
836;SDS011;400;53.550;9.932;2023-03-08T06:15:01;10.70;;;8.30;;
836;SDS011;400;53.550;9.932;2023-03-08T06:17:28;9.52;;;7.88;;
836;SDS011;400;53.550;9.932;2023-03-08T06:19:55;12.48;;;8.32;;
836;SDS011;400;53.550;9.932;2023-03-08T06:22:23;9.23;;;7.35;;
836;SDS011;400;53.550;9.932;2023-03-08T06:24:54;9.00;;;7.50;;
836;SDS011;400;53.550;9.932;2023-03-08T06:27:21;10.73;;;9.05;;
836;SDS011;400;53.550;9.932;2023-03-08T06:29:52;12.45;;;7.80;;
836;SDS011;400;53.550;9.932;2023-03-08T06:32:19;13.77;;;8.35;;
836;SDS011;400;53.550;9.932;2023-03-08T06:34:46;10.75;;;8.70;;
836;SDS011;400;53.550;9.932;2023-03-08T06:37:14;9.40;;;8.38;;
836;SDS011;400;53.550;9.932;2023-03-08T06:39:41;12.68;;;8.70;;
836;SDS011;400;53.550;9.932;2023-03-08T06:42:09;12.70;;;9.18;;
836;SDS011;400;53.550;9.932;2023-03-08T06:44:36;13.07;;;8.40;;
836;SDS011;400;53.550;9.932;2023-03-08T06:47:03;23.25;;;14.18;;
836;SDS011;400;53.550;9.932;2023-03-08T06:49:30;10.60;;;8.07;;
836;SDS011;400;53.550;9.932;2023-03-08T06:51:56;12.32;;;9.20;;
836;SDS011;400;53.550;9.932;2023-03-08T06:54:23;12.73;;;8.55;;
836;SDS011;400;53.550;9.932;2023-03-08T06:56:50;18.30;;;10.10;;
836;SDS011;400;53.550;9.932;2023-03-08T06:59:18;11.48;;;9.20;;
836;SDS011;400;53.550;9.932;2023-03-08T07:01:45;13.30;;;9.90;;
836;SDS011;400;53.550;9.932;2023-03-08T07:04:12;14.27;;;9.27;;
836;SDS011;400;53.550;9.932;2023-03-08T07:06:43;15.70;;;9.45;;
836;SDS011;400;53.550;9.932;2023-03-08T07:09:14;15.23;;;10.20;;
836;SDS011;400;53.550;9.932;2023-03-08T07:11:45;13.65;;;9.25;;
836;SDS011;400;53.550;9.932;2023-03-08T07:14:12;14.65;;;11.00;;
836;SDS011;400;53.550;9.932;2023-03-08T07:16:40;14.40;;;10.00;;
836;SDS011;400;53.550;9.932;2023-03-08T07:19:06;15.02;;;9.52;;
836;SDS011;400;53.550;9.932;2023-03-08T07:21:33;13.27;;;10.15;;
836;SDS011;400;53.550;9.932;2023-03-08T07:24:01;17.60;;;10.75;;
836;SDS011;400;53.550;9.932;2023-03-08T07:26:29;19.67;;;11.88;;
836;SDS011;400;53.550;9.932;2023-03-08T07:29:01;14.95;;;10.90;;
836;SDS011;400;53.550;9.932;2023-03-08T07:31:31;15.77;;;12.38;;
836;SDS011;400;53.550;9.932;2023-03-08T07:34:01;15.48;;;10.60;;
836;SDS011;400;53.550;9.932;2023-03-08T07:36:28;15.15;;;11.60;;
836;SDS011;400;53.550;9.932;2023-03-08T07:38:55;18.23;;;10.80;;
836;SDS011;400;53.550;9.932;2023-03-08T07:41:23;16.80;;;12.60;;
836;SDS011;400;53.550;9.932;2023-03-08T07:43:54;17.15;;;11.70;;
836;SDS011;400;53.550;9.932;2023-03-08T07:46:21;18.98;;;12.73;;
836;SDS011;400;53.550;9.932;2023-03-08T07:48:48;20.25;;;13.88;;
836;SDS011;400;53.550;9.932;2023-03-08T07:51:18;18.08;;;13.20;;
836;SDS011;400;53.550;9.932;2023-03-08T07:53:46;17.13;;;11.98;;
836;SDS011;400;53.550;9.932;2023-03-08T07:56:15;20.40;;;13.18;;
836;SDS011;400;53.550;9.932;2023-03-08T07:58:42;17.65;;;12.63;;
836;SDS011;400;53.550;9.932;2023-03-08T08:01:11;18.35;;;13.52;;
836;SDS011;400;53.550;9.932;2023-03-08T08:03:42;18.23;;;12.27;;
836;SDS011;400;53.550;9.932;2023-03-08T08:06:09;19.42;;;11.52;;
836;SDS011;400;53.550;9.932;2023-03-08T08:08:42;15.90;;;11.27;;
836;SDS011;400;53.550;9.932;2023-03-08T08:11:13;15.85;;;10.60;;
836;SDS011;400;53.550;9.932;2023-03-08T08:13:40;15.73;;;10.68;;
836;SDS011;400;53.550;9.932;2023-03-08T08:16:08;14.40;;;10.30;;
836;SDS011;400;53.550;9.932;2023-03-08T08:18:35;15.30;;;10.95;;
836;SDS011;400;53.550;9.932;2023-03-08T08:21:05;13.50;;;10.15;;
836;SDS011;400;53.550;9.932;2023-03-08T08:23:34;14.10;;;9.45;;
836;SDS011;400;53.550;9.932;2023-03-08T08:26:07;14.15;;;9.23;;
836;SDS011;400;53.550;9.932;2023-03-08T08:28:39;13.35;;;9.30;;
836;SDS011;400;53.550;9.932;2023-03-08T08:31:07;14.25;;;10.60;;
836;SDS011;400;53.550;9.932;2023-03-08T08:33:36;10.75;;;8.15;;
836;SDS011;400;53.550;9.932;2023-03-08T08:36:10;14.77;;;9.27;;
836;SDS011;400;53.550;9.932;2023-03-08T08:38:39;13.05;;;8.15;;
836;SDS011;400;53.550;9.932;2023-03-08T08:41:11;17.35;;;11.77;;
836;SDS011;400;53.550;9.932;2023-03-08T08:43:41;12.25;;;8.40;;
836;SDS011;400;53.550;9.932;2023-03-08T08:46:10;12.20;;;9.27;;
836;SDS011;400;53.550;9.932;2023-03-08T08:48:38;12.60;;;8.70;;
836;SDS011;400;53.550;9.932;2023-03-08T08:51:06;10.55;;;9.10;;
836;SDS011;400;53.550;9.932;2023-03-08T08:53:33;13.77;;;10.10;;
836;SDS011;400;53.550;9.932;2023-03-08T08:56:11;16.45;;;11.70;;
836;SDS011;400;53.550;9.932;2023-03-08T08:58:39;12.10;;;9.10;;
836;SDS011;400;53.550;9.932;2023-03-08T09:01:11;12.95;;;8.70;;
836;SDS011;400;53.550;9.932;2023-03-08T09:03:39;11.13;;;8.55;;
836;SDS011;400;53.550;9.932;2023-03-08T09:06:06;11.68;;;8.60;;
836;SDS011;400;53.550;9.932;2023-03-08T09:08:33;13.40;;;9.02;;
836;SDS011;400;53.550;9.932;2023-03-08T09:11:04;10.77;;;8.93;;
836;SDS011;400;53.550;9.932;2023-03-08T09:13:34;13.15;;;8.50;;
836;SDS011;400;53.550;9.932;2023-03-08T09:16:02;11.73;;;8.60;;
836;SDS011;400;53.550;9.932;2023-03-08T09:18:29;13.63;;;9.23;;
836;SDS011;400;53.550;9.932;2023-03-08T09:20:59;15.32;;;10.10;;
836;SDS011;400;53.550;9.932;2023-03-08T09:23:26;15.90;;;10.75;;
836;SDS011;400;53.550;9.932;2023-03-08T09:25:55;12.40;;;9.35;;
836;SDS011;400;53.550;9.932;2023-03-08T09:28:25;12.90;;;9.52;;
836;SDS011;400;53.550;9.932;2023-03-08T09:31:03;12.65;;;8.88;;
836;SDS011;400;53.550;9.932;2023-03-08T09:33:40;12.07;;;9.57;;
836;SDS011;400;53.550;9.932;2023-03-08T09:36:13;9.65;;;8.52;;
836;SDS011;400;53.550;9.932;2023-03-08T09:38:45;13.93;;;9.20;;
836;SDS011;400;53.550;9.932;2023-03-08T09:41:18;10.52;;;8.20;;
836;SDS011;400;53.550;9.932;2023-03-08T09:44:03;10.73;;;8.88;;
836;SDS011;400;53.550;9.932;2023-03-08T09:46:43;12.52;;;7.97;;
836;SDS011;400;53.550;9.932;2023-03-08T09:49:15;12.18;;;9.50;;
836;SDS011;400;53.550;9.932;2023-03-08T09:51:47;11.70;;;7.03;;
836;SDS011;400;53.550;9.932;2023-03-08T09:54:23;11.60;;;7.13;;
836;SDS011;400;53.550;9.932;2023-03-08T09:56:51;10.52;;;7.60;;
836;SDS011;400;53.550;9.932;2023-03-08T09:59:21;13.40;;;8.98;;
836;SDS011;400;53.550;9.932;2023-03-08T10:01:55;10.13;;;8.30;;
836;SDS011;400;53.550;9.932;2023-03-08T10:04:31;11.57;;;9.43;;
836;SDS011;400;53.550;9.932;2023-03-08T10:10:08;10.05;;;8.48;;
836;SDS011;400;53.550;9.932;2023-03-08T10:12:48;9.73;;;8.32;;
836;SDS011;400;53.550;9.932;2023-03-08T10:15:21;15.40;;;8.68;;
836;SDS011;400;53.550;9.932;2023-03-08T10:17:54;9.88;;;7.65;;
836;SDS011;400;53.550;9.932;2023-03-08T10:20:23;8.80;;;7.65;;
836;SDS011;400;53.550;9.932;2023-03-08T10:22:55;13.65;;;8.95;;
836;SDS011;400;53.550;9.932;2023-03-08T10:25:24;10.15;;;7.78;;
836;SDS011;400;53.550;9.932;2023-03-08T10:27:55;9.85;;;7.90;;
836;SDS011;400;53.550;9.932;2023-03-08T10:30:24;10.10;;;8.30;;
836;SDS011;400;53.550;9.932;2023-03-08T10:32:56;10.73;;;7.47;;
836;SDS011;400;53.550;9.932;2023-03-08T10:35:32;11.00;;;8.05;;
836;SDS011;400;53.550;9.932;2023-03-08T10:38:00;10.50;;;7.18;;
836;SDS011;400;53.550;9.932;2023-03-08T10:40:28;9.88;;;8.05;;
836;SDS011;400;53.550;9.932;2023-03-08T10:42:56;13.40;;;8.93;;
836;SDS011;400;53.550;9.932;2023-03-08T10:45:28;12.45;;;7.47;;
836;SDS011;400;53.550;9.932;2023-03-08T10:47:57;9.68;;;7.50;;
836;SDS011;400;53.550;9.932;2023-03-08T10:50:25;10.27;;;8.57;;
836;SDS011;400;53.550;9.932;2023-03-08T10:52:54;11.98;;;8.75;;
836;SDS011;400;53.550;9.932;2023-03-08T10:55:37;7.32;;;6.57;;
836;SDS011;400;53.550;9.932;2023-03-08T10:58:22;9.80;;;6.22;;
836;SDS011;400;53.550;9.932;2023-03-08T11:00:57;8.00;;;7.18;;
836;SDS011;400;53.550;9.932;2023-03-08T11:03:28;9.70;;;6.80;;
836;SDS011;400;53.550;9.932;2023-03-08T11:06:03;6.75;;;5.50;;
836;SDS011;400;53.550;9.932;2023-03-08T11:08:50;7.93;;;5.47;;
836;SDS011;400;53.550;9.932;2023-03-08T11:11:18;7.15;;;6.13;;
836;SDS011;400;53.550;9.932;2023-03-08T11:13:53;9.13;;;5.45;;
836;SDS011;400;53.550;9.932;2023-03-08T11:19:18;5.80;;;5.20;;
836;SDS011;400;53.550;9.932;2023-03-08T11:22:24;7.35;;;5.55;;
836;SDS011;400;53.550;9.932;2023-03-08T11:25:04;7.47;;;4.40;;
836;SDS011;400;53.550;9.932;2023-03-08T11:27:58;5.43;;;4.95;;
836;SDS011;400;53.550;9.932;2023-03-08T11:30:41;5.60;;;4.40;;
836;SDS011;400;53.550;9.932;2023-03-08T11:33:30;7.32;;;4.80;;
836;SDS011;400;53.550;9.932;2023-03-08T11:36:10;5.72;;;4.85;;
836;SDS011;400;53.550;9.932;2023-03-08T11:38:47;4.88;;;3.90;;
836;SDS011;400;53.550;9.932;2023-03-08T11:41:26;3.90;;;3.60;;
836;SDS011;400;53.550;9.932;2023-03-08T11:44:15;5.20;;;4.53;;
836;SDS011;400;53.550;9.932;2023-03-08T11:47:26;6.55;;;4.75;;
836;SDS011;400;53.550;9.932;2023-03-08T11:50:19;5.88;;;4.90;;
836;SDS011;400;53.550;9.932;2023-03-08T11:55:51;6.50;;;5.68;;
836;SDS011;400;53.550;9.932;2023-03-08T11:58:28;8.27;;;6.20;;
836;SDS011;400;53.550;9.932;2023-03-08T12:00:59;8.80;;;4.45;;
836;SDS011;400;53.550;9.932;2023-03-08T12:03:28;5.97;;;4.93;;
836;SDS011;400;53.550;9.932;2023-03-08T12:06:03;5.13;;;4.72;;
836;SDS011;400;53.550;9.932;2023-03-08T12:08:37;7.57;;;6.07;;
836;SDS011;400;53.550;9.932;2023-03-08T12:11:09;6.38;;;5.70;;
836;SDS011;400;53.550;9.932;2023-03-08T12:13:43;6.93;;;6.25;;
836;SDS011;400;53.550;9.932;2023-03-08T12:16:15;8.05;;;7.35;;
836;SDS011;400;53.550;9.932;2023-03-08T12:18:58;9.98;;;7.82;;
836;SDS011;400;53.550;9.932;2023-03-08T12:21:32;7.38;;;6.30;;
836;SDS011;400;53.550;9.932;2023-03-08T12:24:17;7.55;;;6.85;;
836;SDS011;400;53.550;9.932;2023-03-08T12:26:54;6.57;;;6.00;;
836;SDS011;400;53.550;9.932;2023-03-08T12:29:27;8.40;;;6.40;;
836;SDS011;400;53.550;9.932;2023-03-08T12:31:58;8.05;;;6.25;;
836;SDS011;400;53.550;9.932;2023-03-08T12:34:28;7.32;;;6.63;;
836;SDS011;400;53.550;9.932;2023-03-08T12:37:02;8.57;;;7.88;;
836;SDS011;400;53.550;9.932;2023-03-08T12:39:31;11.30;;;8.02;;
836;SDS011;400;53.550;9.932;2023-03-08T12:42:01;11.05;;;7.53;;
836;SDS011;400;53.550;9.932;2023-03-08T12:44:39;8.90;;;7.30;;
836;SDS011;400;53.550;9.932;2023-03-08T12:47:17;8.73;;;7.82;;
836;SDS011;400;53.550;9.932;2023-03-08T12:49:48;8.70;;;7.85;;
836;SDS011;400;53.550;9.932;2023-03-08T12:52:25;9.40;;;7.85;;
836;SDS011;400;53.550;9.932;2023-03-08T12:54:59;7.43;;;6.60;;
836;SDS011;400;53.550;9.932;2023-03-08T12:57:30;7.60;;;6.50;;
836;SDS011;400;53.550;9.932;2023-03-08T13:00:03;8.82;;;8.02;;
836;SDS011;400;53.550;9.932;2023-03-08T13:02:34;7.20;;;6.60;;
836;SDS011;400;53.550;9.932;2023-03-08T13:07:54;6.20;;;5.70;;
836;SDS011;400;53.550;9.932;2023-03-08T13:10:32;7.55;;;6.80;;
836;SDS011;400;53.550;9.932;2023-03-08T13:13:21;6.85;;;5.78;;
836;SDS011;400;53.550;9.932;2023-03-08T13:16:03;6.82;;;6.22;;
836;SDS011;400;53.550;9.932;2023-03-08T13:18:44;7.13;;;6.53;;
836;SDS011;400;53.550;9.932;2023-03-08T13:21:24;6.13;;;5.50;;
836;SDS011;400;53.550;9.932;2023-03-08T13:23:56;6.32;;;5.28;;
836;SDS011;400;53.550;9.932;2023-03-08T13:26:36;6.20;;;5.80;;
836;SDS011;400;53.550;9.932;2023-03-08T13:29:19;5.75;;;4.70;;
836;SDS011;400;53.550;9.932;2023-03-08T13:31:58;6.65;;;6.05;;
836;SDS011;400;53.550;9.932;2023-03-08T13:34:31;7.38;;;6.78;;
836;SDS011;400;53.550;9.932;2023-03-08T13:36:59;6.93;;;6.32;;
836;SDS011;400;53.550;9.932;2023-03-08T13:39:26;7.75;;;7.05;;
836;SDS011;400;53.550;9.932;2023-03-08T13:42:05;5.80;;;5.32;;
836;SDS011;400;53.550;9.932;2023-03-08T13:44:34;6.15;;;5.63;;
836;SDS011;400;53.550;9.932;2023-03-08T13:47:11;6.60;;;6.10;;
836;SDS011;400;53.550;9.932;2023-03-08T13:49:46;8.55;;;6.78;;
836;SDS011;400;53.550;9.932;2023-03-08T13:52:14;9.50;;;6.38;;
836;SDS011;400;53.550;9.932;2023-03-08T13:54:46;7.25;;;6.65;;
836;SDS011;400;53.550;9.932;2023-03-08T13:57:18;8.35;;;6.82;;
836;SDS011;400;53.550;9.932;2023-03-08T13:59:47;6.57;;;5.95;;
836;SDS011;400;53.550;9.932;2023-03-08T14:02:17;8.20;;;7.30;;
836;SDS011;400;53.550;9.932;2023-03-08T14:04:46;8.25;;;7.03;;
836;SDS011;400;53.550;9.932;2023-03-08T14:07:17;7.15;;;6.55;;
836;SDS011;400;53.550;9.932;2023-03-08T14:09:47;8.02;;;7.18;;
836;SDS011;400;53.550;9.932;2023-03-08T14:12:15;8.38;;;7.57;;
836;SDS011;400;53.550;9.932;2023-03-08T14:14:45;8.68;;;7.38;;
836;SDS011;400;53.550;9.932;2023-03-08T14:17:18;8.10;;;7.30;;
836;SDS011;400;53.550;9.932;2023-03-08T14:19:51;7.38;;;6.78;;
836;SDS011;400;53.550;9.932;2023-03-08T14:22:20;7.15;;;5.85;;
836;SDS011;400;53.550;9.932;2023-03-08T14:24:49;7.05;;;6.25;;
836;SDS011;400;53.550;9.932;2023-03-08T14:27:30;6.90;;;6.30;;
836;SDS011;400;53.550;9.932;2023-03-08T14:30:02;6.65;;;5.95;;
836;SDS011;400;53.550;9.932;2023-03-08T14:32:40;5.78;;;5.05;;
836;SDS011;400;53.550;9.932;2023-03-08T14:35:25;6.97;;;6.30;;
836;SDS011;400;53.550;9.932;2023-03-08T14:37:57;5.80;;;5.20;;
836;SDS011;400;53.550;9.932;2023-03-08T14:40:26;5.78;;;5.18;;
836;SDS011;400;53.550;9.932;2023-03-08T14:42:56;5.93;;;4.55;;
836;SDS011;400;53.550;9.932;2023-03-08T14:45:31;7.78;;;6.25;;
836;SDS011;400;53.550;9.932;2023-03-08T14:48:42;5.32;;;4.82;;
836;SDS011;400;53.550;9.932;2023-03-08T14:51:24;5.05;;;4.65;;
836;SDS011;400;53.550;9.932;2023-03-08T14:53:58;6.13;;;4.93;;
836;SDS011;400;53.550;9.932;2023-03-08T14:56:28;4.97;;;4.50;;
836;SDS011;400;53.550;9.932;2023-03-08T14:59:00;5.10;;;4.40;;
836;SDS011;400;53.550;9.932;2023-03-08T15:01:32;4.82;;;4.32;;
836;SDS011;400;53.550;9.932;2023-03-08T15:04:09;4.70;;;4.30;;
836;SDS011;400;53.550;9.932;2023-03-08T15:06:44;4.25;;;3.95;;
836;SDS011;400;53.550;9.932;2023-03-08T15:09:13;6.82;;;4.43;;
836;SDS011;400;53.550;9.932;2023-03-08T15:11:43;4.63;;;3.78;;
836;SDS011;400;53.550;9.932;2023-03-08T15:14:15;16.33;;;13.15;;
836;SDS011;400;53.550;9.932;2023-03-08T15:16:44;30.00;;;22.70;;
836;SDS011;400;53.550;9.932;2023-03-08T15:19:11;4.13;;;3.75;;
836;SDS011;400;53.550;9.932;2023-03-08T15:21:45;3.67;;;3.38;;
836;SDS011;400;53.550;9.932;2023-03-08T15:24:15;5.00;;;2.92;;
836;SDS011;400;53.550;9.932;2023-03-08T15:26:48;5.00;;;3.30;;
836;SDS011;400;53.550;9.932;2023-03-08T15:29:30;3.30;;;3.00;;
836;SDS011;400;53.550;9.932;2023-03-08T15:32:03;5.57;;;3.97;;
836;SDS011;400;53.550;9.932;2023-03-08T15:34:45;4.03;;;2.80;;
836;SDS011;400;53.550;9.932;2023-03-08T15:37:17;3.85;;;3.00;;
836;SDS011;400;53.550;9.932;2023-03-08T15:39:45;5.97;;;3.13;;
836;SDS011;400;53.550;9.932;2023-03-08T15:42:15;3.30;;;2.90;;
836;SDS011;400;53.550;9.932;2023-03-08T15:44:44;2.40;;;2.20;;
836;SDS011;400;53.550;9.932;2023-03-08T15:47:13;5.72;;;3.30;;
836;SDS011;400;53.550;9.932;2023-03-08T15:49:48;2.65;;;2.40;;
836;SDS011;400;53.550;9.932;2023-03-08T15:52:15;3.22;;;2.80;;
836;SDS011;400;53.550;9.932;2023-03-08T15:54:42;2.97;;;2.28;;
836;SDS011;400;53.550;9.932;2023-03-08T15:57:12;2.80;;;2.50;;
836;SDS011;400;53.550;9.932;2023-03-08T15:59:40;4.88;;;2.60;;
836;SDS011;400;53.550;9.932;2023-03-08T16:02:09;4.40;;;3.42;;
836;SDS011;400;53.550;9.932;2023-03-08T16:04:39;3.95;;;3.05;;
836;SDS011;400;53.550;9.932;2023-03-08T16:07:13;3.17;;;2.88;;
836;SDS011;400;53.550;9.932;2023-03-08T16:09:44;3.17;;;2.58;;
836;SDS011;400;53.550;9.932;2023-03-08T16:12:11;3.83;;;2.90;;